Time;durP1;ratioP1;P1;durP2;ratioP2;P2;SDS_P1;SDS_P2;PMS_P1;PMS_P2;Temp;Humidity;BMP_temperature;BMP_pressure;BME280_temperature;BME280_humidity;BME280_pressure;Samples;Min_cycle;Max_cycle;Signal;HPM_P1;HPM_P2
2022/05/04 00:01:42;;;;;;;;;;;;;;;20.64;46.78;101779.63;7281347;19;153324;-69
2022/05/04 00:04:09;;;;;;;;;;;;;;;20.64;46.59;101785.25;7278932;19;152295;-69
2022/05/04 00:06:36;;;;;;;;;;;;;;;20.62;46.98;101781.91;7280270;19;152102;-68
2022/05/04 00:09:03;;;;;;;;;;;;;;;20.61;46.69;101780.22;7278889;19;154299;-68
2022/05/04 00:11:30;;;;;;;;;;;;;;;20.62;47.06;101776.28;7280020;19;151830;-68
2022/05/04 00:13:57;;;;;;;;;;;;;;;20.64;46.86;101773.16;7288037;19;153561;-67
2022/05/04 00:16:24;;;;;;;;;;;;;;;20.62;46.91;101775.44;7281492;19;151954;-68
2022/05/04 00:18:51;;;;;;;;;;;;;;;20.63;47.13;101785.53;7279767;19;151963;-67
2022/05/04 00:21:18;;;;;;;;;;;;;;;20.62;47.40;101784.72;7278709;19;153807;-66
2022/05/04 00:23:45;;;;;;;;;;;;;;;20.61;47.03;101780.22;7279999;19;151835;-67
2022/05/04 00:26:12;;;;;;;;;;;;;;;20.63;46.99;101783.56;7280377;19;153416;-67
2022/05/04 00:28:39;;;;;;;;;;;;;;;20.62;47.04;101770.69;7278513;19;152705;-68
2022/05/04 00:31:06;;;;;;;;;;;;;;;20.62;47.26;101779.09;7279341;19;151920;-68
2022/05/04 00:33:33;;;;;;;;;;;;;;;20.65;47.68;101778.50;7281398;19;153605;-68
2022/05/04 00:36:00;;;;;;;;;;;;;;;20.64;47.67;101776.81;7286315;19;153811;-69
2022/05/04 00:38:27;;;;;;;;;;;;;;;20.63;47.88;101777.94;7281428;19;154028;-68
2022/05/04 00:40:53;;;;;;;;;;;;;;;20.63;48.07;101775.13;7278692;19;155433;-69
2022/05/04 00:43:22;;;;;;;;;;;;;;;20.65;47.66;101769.25;7277552;19;152486;-69
2022/05/04 00:45:49;;;;;;;;;;;;;;;20.63;48.00;101772.34;7281800;19;154138;-70
2022/05/04 00:48:16;;;;;;;;;;;;;;;20.62;47.79;101769.84;7278439;19;153171;-70
2022/05/04 00:50:47;;;;;;;;;;;;;;;20.59;47.71;101764.78;7278065;19;152282;-69
2022/05/04 00:53:15;;;;;;;;;;;;;;;20.57;47.85;101767.88;7281338;19;151808;-69
2022/05/04 00:55:42;;;;;;;;;;;;;;;20.58;47.82;101768.72;7284326;19;156379;-69
2022/05/04 01:00:48;;;;;;;;;;;;;;;20.53;48.22;101758.38;7276600;19;153077;-69
2022/05/04 01:03:15;;;;;;;;;;;;;;;20.54;48.28;101760.03;7280855;19;151900;-70
2022/05/04 01:05:43;;;;;;;;;;;;;;;20.53;47.85;101760.34;7278431;19;151980;-68
2022/05/04 01:08:11;;;;;;;;;;;;;;;20.51;48.10;101751.34;7277593;19;154360;-69
2022/05/04 01:10:37;;;;;;;;;;;;;;;20.51;47.90;101752.19;7278022;19;151930;-69
2022/05/04 01:13:04;;;;;;;;;;;;;;;20.51;47.79;101751.34;7278812;19;151796;-69
2022/05/04 01:15:31;;;;;;;;;;;;;;;20.51;48.25;101751.34;7273250;19;154345;-68
2022/05/04 01:17:58;;;;;;;;;;;;;;;20.50;47.99;101750.50;7286512;19;151545;-69
2022/05/04 01:20:25;;;;;;;;;;;;;;;20.55;48.59;101749.63;7277824;19;153109;-70
2022/05/04 01:22:52;;;;;;;;;;;;;;;20.54;48.25;101746.00;7278290;19;151912;-72
2022/05/04 01:25:19;;;;;;;;;;;;;;;20.54;48.44;101754.41;7277927;19;153602;-69
2022/05/04 01:27:46;;;;;;;;;;;;;;;20.51;47.99;101752.19;7278425;19;154014;-68
2022/05/04 01:30:13;;;;;;;;;;;;;;;20.54;47.98;101756.38;7278066;19;152090;-70
2022/05/04 01:32:40;;;;;;;;;;;;;;;20.55;48.04;101755.25;7278201;19;153904;-70
2022/05/04 01:35:07;;;;;;;;;;;;;;;20.55;47.87;101758.06;7278326;19;153458;-70
2022/05/04 01:37:34;;;;;;;;;;;;;;;20.57;47.85;101756.66;7280163;19;152226;-70
2022/05/04 01:40:01;;;;;;;;;;;;;;;20.58;48.01;101758.31;7285171;19;152696;-72
2022/05/04 01:42:28;;;;;;;;;;;;;;;20.60;47.91;101753.25;7280596;19;151595;-72
2022/05/04 01:44:55;;;;;;;;;;;;;;;20.58;47.57;101743.47;7275652;19;153334;-72
2022/05/04 01:47:22;;;;;;;;;;;;;;;20.56;47.90;101754.13;7278385;19;152256;-74
2022/05/04 01:49:49;;;;;;;;;;;;;;;20.54;47.89;101746.00;7278064;19;152043;-69
2022/05/04 01:52:17;;;;;;;;;;;;;;;20.51;48.00;101746.56;7282781;19;153622;-66
2022/05/04 01:54:43;;;;;;;;;;;;;;;20.50;48.22;101749.66;7283816;19;156052;-70
2022/05/04 01:57:10;;;;;;;;;;;;;;;20.49;47.99;101748.00;7286384;19;151524;-69
2022/05/04 01:59:37;;;;;;;;;;;;;;;20.49;47.95;101743.19;7285126;19;151748;-67
2022/05/04 02:02:06;;;;;;;;;;;;;;;20.46;48.17;101737.34;7292779;19;154246;-70
2022/05/04 02:04:34;;;;;;;;;;;;;;;20.47;47.97;101739.88;7281504;19;156075;-69
2022/05/04 02:07:01;;;;;;;;;;;;;;;20.45;48.39;101742.09;7283071;19;153342;-69
2022/05/04 02:09:28;;;;;;;;;;;;;;;20.46;47.96;101737.34;7282795;19;152447;-69
2022/05/04 02:11:55;;;;;;;;;;;;;;;20.44;48.50;101740.44;7284409;19;152886;-68
2022/05/04 02:14:21;;;;;;;;;;;;;;;20.42;48.23;101735.13;7282772;19;153352;-66
2022/05/04 02:16:48;;;;;;;;;;;;;;;20.42;48.81;101723.03;7283453;19;151604;-68
2022/05/04 02:19:15;;;;;;;;;;;;;;;20.45;48.73;101728.06;7283480;19;153002;-68
2022/05/04 02:21:42;;;;;;;;;;;;;;;20.41;48.74;101727.81;7282202;19;152575;-69
2022/05/04 02:24:09;;;;;;;;;;;;;;;20.46;49.07;101729.75;7290461;19;152255;-69
2022/05/04 02:26:35;;;;;;;;;;;;;;;20.41;48.65;101735.41;7282875;19;153735;-69
2022/05/04 02:29:02;;;;;;;;;;;;;;;20.42;49.05;101734.28;7282344;19;151748;-68
2022/05/04 02:31:29;;;;;;;;;;;;;;;20.42;49.20;101721.09;7285397;19;153524;-69
2022/05/04 02:33:56;;;;;;;;;;;;;;;20.43;49.16;101730.34;7284155;19;154247;-69
2022/05/04 02:38:59;;;;;;;;;;;;;;;20.42;48.75;101723.88;7283494;19;152760;-69
2022/05/04 02:41:26;;;;;;;;;;;;;;;20.42;49.12;101731.47;7283076;19;154638;-70
2022/05/04 02:43:53;;;;;;;;;;;;;;;20.40;49.28;101725.28;7280941;19;152199;-68
2022/05/04 02:46:20;;;;;;;;;;;;;;;20.38;49.14;101719.13;7290944;19;152676;-71
2022/05/04 02:48:47;;;;;;;;;;;;;;;20.39;48.88;101715.22;7283639;19;151812;-68
2022/05/04 02:51:14;;;;;;;;;;;;;;;20.41;49.07;101718.56;7285298;19;152786;-68
2022/05/04 02:53:41;;;;;;;;;;;;;;;20.38;48.80;101716.34;7281941;19;153301;-69
2022/05/04 02:56:10;;;;;;;;;;;;;;;20.45;48.93;101714.03;7283665;19;152166;-69
2022/05/04 02:58:37;;;;;;;;;;;;;;;20.39;48.89;101718.84;7281439;19;153789;-70
2022/05/04 03:02:26;;;;;;;;;;;;;;;20.41;48.97;101713.78;7281224;19;153765;-69
2022/05/04 03:03:53;;;;;;;;;;;;;;;20.46;49.16;101714.88;7280149;19;152069;-71
2022/05/04 03:06:20;;;;;;;;;;;;;;;20.50;49.12;101715.97;7289326;19;152997;-72
2022/05/04 03:08:47;;;;;;;;;;;;;;;20.46;49.15;101712.91;7283419;19;152125;-70
2022/05/04 03:13:49;;;;;;;;;;;;;;;20.48;49.15;101710.66;7280509;19;154048;-68
2022/05/04 03:16:17;;;;;;;;;;;;;;;20.51;49.04;101709.25;7281989;19;151788;-70
2022/05/04 03:18:44;;;;;;;;;;;;;;;20.49;48.54;101708.72;7282979;19;152850;-68
2022/05/04 03:21:11;;;;;;;;;;;;;;;20.45;48.36;101704.78;7280590;19;152080;-73
2022/05/04 03:23:38;;;;;;;;;;;;;;;20.39;48.88;101703.97;7282790;19;152432;-72
2022/05/04 03:26:08;;;;;;;;;;;;;;;20.35;48.66;101698.09;7278713;19;155545;-72
2022/05/04 03:28:34;;;;;;;;;;;;;;;20.37;48.57;101690.22;7288845;19;154564;-73
2022/05/04 03:31:02;;;;;;;;;;;;;;;20.35;49.01;101697.28;7283163;19;153428;-71
2022/05/04 03:33:29;;;;;;;;;;;;;;;20.33;49.10;101691.09;7282852;19;154087;-68
2022/05/04 03:35:55;;;;;;;;;;;;;;;20.31;49.04;101690.53;7281625;19;152288;-69
2022/05/04 03:38:22;;;;;;;;;;;;;;;20.34;48.83;101688.00;7280471;19;155478;-70
2022/05/04 03:40:49;;;;;;;;;;;;;;;20.31;48.63;101690.53;7283705;19;156181;-70
2022/05/04 03:43:16;;;;;;;;;;;;;;;20.33;48.88;101682.69;7281735;19;152316;-70
2022/05/04 03:45:42;;;;;;;;;;;;;;;20.31;48.98;101684.91;7278863;19;155657;-68
2022/05/04 03:48:09;;;;;;;;;;;;;;;20.34;48.54;101684.38;7279470;19;152252;-70
2022/05/04 03:50:36;;;;;;;;;;;;;;;20.29;48.78;101679.59;7288862;19;152271;-67
2022/05/04 03:53:03;;;;;;;;;;;;;;;20.37;49.07;101684.63;7279649;19;153997;-70
2022/05/04 03:55:30;;;;;;;;;;;;;;;20.35;48.84;101681.25;7281542;19;151930;-68
2022/05/04 03:57:56;;;;;;;;;;;;;;;20.28;48.93;101680.72;7281102;19;154844;-67
2022/05/04 04:00:24;;;;;;;;;;;;;;;20.27;49.30;101678.19;7282195;19;155304;-71
2022/05/04 04:02:51;;;;;;;;;;;;;;;20.27;49.16;101678.19;7281561;19;152087;-70
2022/05/04 04:05:18;;;;;;;;;;;;;;;20.27;49.47;101678.19;7280385;19;151962;-69
2022/05/04 04:07:45;;;;;;;;;;;;;;;20.27;49.70;101679.03;7281534;19;155730;-73
2022/05/04 04:10:12;;;;;;;;;;;;;;;20.27;49.29;101681.81;7282536;19;151771;-72
2022/05/04 04:12:39;;;;;;;;;;;;;;;20.31;49.63;101684.91;7287836;19;151998;-70
2022/05/04 04:15:06;;;;;;;;;;;;;;;20.27;49.26;101673.41;7275372;19;151550;-68
2022/05/04 04:17:33;;;;;;;;;;;;;;;20.27;49.50;101680.97;7282216;19;151843;-71
2022/05/04 04:22:36;;;;;;;;;;;;;;;20.29;49.62;101679.59;7282347;19;154144;-69
2022/05/04 04:25:04;;;;;;;;;;;;;;;20.24;49.64;101679.59;7278608;19;152114;-69
2022/05/04 04:27:32;;;;;;;;;;;;;;;20.21;50.03;101680.19;7277651;19;154447;-69
2022/05/04 04:29:59;;;;;;;;;;;;;;;20.29;49.92;101681.56;7282548;19;152334;-69
2022/05/04 04:32:26;;;;;;;;;;;;;;;20.24;49.84;101684.38;7279675;19;153404;-68
2022/05/04 04:34:53;;;;;;;;;;;;;;;20.23;49.96;101679.88;7286317;19;154053;-68
2022/05/04 04:37:20;;;;;;;;;;;;;;;20.28;50.03;101685.47;7279778;19;152523;-67
2022/05/04 04:39:47;;;;;;;;;;;;;;;20.22;49.55;101675.41;7279129;19;153459;-70
2022/05/04 04:42:14;;;;;;;;;;;;;;;20.22;49.48;101670.63;7280559;19;152904;-71
2022/05/04 04:44:41;;;;;;;;;;;;;;;20.17;49.68;101667.03;7281906;19;153053;-71
2022/05/04 04:47:08;;;;;;;;;;;;;;;20.16;50.02;101682.19;7279764;19;153358;-73
2022/05/04 04:49:35;;;;;;;;;;;;;;;20.20;50.06;101677.66;7280079;19;152291;-71
2022/05/04 04:52:02;;;;;;;;;;;;;;;20.17;49.52;101678.25;7281716;19;152856;-70
2022/05/04 04:54:29;;;;;;;;;;;;;;;20.15;49.64;101683.31;7280403;19;156665;-71
2022/05/04 04:56:58;;;;;;;;;;;;;;;20.20;49.87;101675.69;7290073;19;152570;-69
2022/05/04 04:59:25;;;;;;;;;;;;;;;20.15;49.45;101678.53;7279975;19;152421;-70
2022/05/04 05:01:52;;;;;;;;;;;;;;;20.13;49.51;101682.72;7282267;19;151942;-70
2022/05/04 05:04:19;;;;;;;;;;;;;;;20.18;50.19;101677.94;7282594;19;153507;-69
2022/05/04 05:06:46;;;;;;;;;;;;;;;20.20;49.97;101686.09;7276224;19;153825;-70
2022/05/04 05:09:13;;;;;;;;;;;;;;;20.15;49.68;101681.34;7278894;19;152125;-69
2022/05/04 05:11:40;;;;;;;;;;;;;;;20.12;49.95;101683.88;7280239;19;152471;-70
2022/05/04 05:16:44;;;;;;;;;;;;;;;20.16;49.59;101674.59;7286472;19;152027;-68
2022/05/04 05:19:11;;;;;;;;;;;;;;;20.11;49.55;101691.47;7278223;19;153867;-67
2022/05/04 05:21:38;;;;;;;;;;;;;;;20.16;49.91;101676.56;7279302;19;151520;-69
2022/05/04 05:24:05;;;;;;;;;;;;;;;20.12;49.69;101676.31;7278918;19;154608;-67
2022/05/04 05:26:32;;;;;;;;;;;;;;;20.10;49.72;101680.50;7274491;19;153437;-67
2022/05/04 05:28:59;;;;;;;;;;;;;;;20.10;49.99;101677.72;7278724;19;151725;-70
2022/05/04 05:31:26;;;;;;;;;;;;;;;20.15;49.63;101672.91;7278690;19;154648;-70
2022/05/04 05:33:53;;;;;;;;;;;;;;;20.18;49.80;101675.13;7277429;19;155884;-69
2022/05/04 05:36:20;;;;;;;;;;;;;;;20.21;49.80;101682.16;7278337;19;152011;-70
2022/05/04 05:38:47;;;;;;;;;;;;;;;20.25;50.15;101677.66;7284852;19;152522;-69
2022/05/04 05:41:14;;;;;;;;;;;;;;;20.30;50.49;101672.88;7280256;19;152193;-73
2022/05/04 05:43:41;;;;;;;;;;;;;;;20.37;50.28;101678.16;7278291;19;155575;-70
2022/05/04 05:46:08;;;;;;;;;;;;;;;20.44;50.55;101670.28;7275290;19;154489;-70
2022/05/04 05:48:36;;;;;;;;;;;;;;;20.53;50.78;101676.09;7278937;19;152040;-69
2022/05/04 05:51:05;;;;;;;;;;;;;;;20.61;50.60;101673.53;7278910;19;153563;-71
2022/05/04 05:53:32;;;;;;;;;;;;;;;20.70;50.48;101683.00;7276647;19;153707;-65
2022/05/04 05:55:59;;;;;;;;;;;;;;;20.79;50.37;101678.44;7277533;19;152554;-70
2022/05/04 05:58:26;;;;;;;;;;;;;;;20.89;50.02;101676.69;7278435;19;154743;-68
2022/05/04 06:00:53;;;;;;;;;;;;;;;20.96;50.07;101678.03;7283669;19;152209;-67
2022/05/04 06:03:21;;;;;;;;;;;;;;;21.07;49.54;101687.22;7278097;19;152619;-68
2022/05/04 06:05:49;;;;;;;;;;;;;;;21.14;49.50;101676.50;7276307;19;152084;-67
2022/05/04 06:08:16;;;;;;;;;;;;;;;21.23;49.14;101680.34;7280661;19;151853;-67
2022/05/04 06:10:44;;;;;;;;;;;;;;;21.29;48.65;101684.78;7279751;19;154466;-69
2022/05/04 06:13:11;;;;;;;;;;;;;;;21.35;48.08;101683.59;7279658;19;152939;-68
2022/05/04 06:15:38;;;;;;;;;;;;;;;21.43;47.76;101690.56;7275277;19;151725;-70
2022/05/04 06:18:05;;;;;;;;;;;;;;;21.49;47.48;101683.72;7277512;19;151835;-71
2022/05/04 06:20:32;;;;;;;;;;;;;;;21.56;47.44;101687.03;7277948;19;154999;-69
2022/05/04 06:22:59;;;;;;;;;;;;;;;21.54;45.93;101687.34;7285253;19;152498;-66
2022/05/04 06:25:26;;;;;;;;;;;;;;;21.40;45.92;101694.78;7278042;19;153334;-66
2022/05/04 06:27:53;;;;;;;;;;;;;;;21.43;45.46;101688.59;7277125;19;151664;-64
2022/05/04 06:35:34;;;;;;;;;;;;;;;21.63;45.10;101693.97;7277115;19;151690;-64
2022/05/04 06:38:02;;;;;;;;;;;;;;;21.68;45.42;101695.91;7280749;19;155464;-67
2022/05/04 06:40:29;;;;;;;;;;;;;;;21.72;45.07;101699.78;7283148;19;155516;-66
2022/05/04 06:42:56;;;;;;;;;;;;;;;21.73;45.12;101691.06;7286965;19;152350;-65
2022/05/04 06:45:24;;;;;;;;;;;;;;;21.77;44.99;101696.09;7290349;19;155183;-66
2022/05/04 06:47:51;;;;;;;;;;;;;;;21.80;44.64;101696.34;7285552;19;152510;-66
2022/05/04 06:50:18;;;;;;;;;;;;;;;21.83;44.77;101692.09;7283847;19;153515;-65
2022/05/04 06:52:46;;;;;;;;;;;;;;;21.85;44.41;101692.63;7282723;19;154193;-66
2022/05/04 06:55:13;;;;;;;;;;;;;;;21.87;44.45;101695.97;7284646;19;151772;-65
2022/05/04 06:57:40;;;;;;;;;;;;;;;21.86;44.39;101688.66;7284066;19;153399;-70
2022/05/04 07:00:08;;;;;;;;;;;;;;;21.89;44.52;101691.75;7284857;19;155552;-68
2022/05/04 07:02:37;;;;;;;;;;;;;;;21.95;44.16;101686.91;7284185;19;152307;-69
2022/05/04 07:05:05;;;;;;;;;;;;;;;21.95;44.29;101690.56;7283284;19;153036;-69
2022/05/04 07:07:33;;;;;;;;;;;;;;;21.94;44.18;101683.25;7289178;19;151441;-68
2022/05/04 07:10:00;;;;;;;;;;;;;;;22.00;44.07;101695.28;7285332;19;151669;-68
2022/05/04 07:12:28;;;;;;;;;;;;;;;22.00;44.11;101695.28;7285657;19;153682;-69
2022/05/04 07:14:56;;;;;;;;;;;;;;;21.99;44.45;101697.25;7281648;19;152501;-66
2022/05/04 07:17:23;;;;;;;;;;;;;;;21.98;44.27;101691.94;7286034;19;151753;-68
2022/05/04 07:19:50;;;;;;;;;;;;;;;22.01;45.05;101688.53;7283900;19;154042;-62
2022/05/04 07:22:18;;;;;;;;;;;;;;;22.05;44.61;101695.22;7285676;19;152279;-64
2022/05/04 07:24:45;;;;;;;;;;;;;;;22.03;44.64;101692.69;7284535;19;152606;-68
2022/05/04 07:27:12;;;;;;;;;;;;;;;22.02;44.21;101693.00;7286872;19;152529;-68
2022/05/04 07:29:39;;;;;;;;;;;;;;;21.96;44.24;101689.41;7284039;19;155614;-69
2022/05/04 07:32:06;;;;;;;;;;;;;;;21.96;44.34;101691.41;7281768;19;152354;-68
2022/05/04 07:34:33;;;;;;;;;;;;;;;21.95;44.07;101698.16;7282118;19;151908;-70
2022/05/04 07:37:00;;;;;;;;;;;;;;;21.93;43.97;101692.00;7283143;19;154524;-70
2022/05/04 07:44:44;;;;;;;;;;;;;;;21.84;44.09;101697.41;7281429;19;151806;-69
2022/05/04 07:47:11;;;;;;;;;;;;;;;21.81;44.34;101694.34;7279970;19;154645;-68
2022/05/04 07:49:37;;;;;;;;;;;;;;;21.79;43.99;101699.44;7291839;19;151873;-69
2022/05/04 07:52:04;;;;;;;;;;;;;;;21.78;44.20;101697.75;7282528;19;152111;-68
2022/05/04 07:54:31;;;;;;;;;;;;;;;21.75;44.15;101690.78;7284200;19;151821;-69
2022/05/04 07:56:58;;;;;;;;;;;;;;;21.76;44.23;101691.63;7282882;19;153199;-70
2022/05/04 07:59:25;;;;;;;;;;;;;;;21.72;44.41;101691.34;7281348;19;153309;-69
2022/05/04 08:04:37;;;;;;;;;;;;;;;21.70;43.96;101696.47;7283586;19;152000;-67
2022/05/04 08:07:04;;;;;;;;;;;;;;;21.67;44.37;101691.41;7279042;19;155552;-69
2022/05/04 08:09:36;;;;;;;;;;;;;;;21.64;44.47;101692.84;7282389;19;151702;-69
2022/05/04 08:12:04;;;;;;;;;;;;;;;21.64;44.23;101697.63;7288842;19;154126;-69
2022/05/04 08:14:31;;;;;;;;;;;;;;;21.60;44.06;101688.97;7282316;19;151542;-70
2022/05/04 08:16:58;;;;;;;;;;;;;;;21.61;44.45;101690.66;7281324;19;152700;-70
2022/05/04 08:19:25;;;;;;;;;;;;;;;21.59;44.28;101686.44;7280795;19;153232;-70
2022/05/04 08:21:52;;;;;;;;;;;;;;;21.56;44.53;101682.25;7281347;19;151895;-69
2022/05/04 08:24:19;;;;;;;;;;;;;;;21.53;44.54;101677.22;7281533;19;155102;-68
2022/05/04 08:26:52;;;;;;;;;;;;;;;21.53;44.21;101677.22;7280216;19;152410;-69
2022/05/04 08:29:19;;;;;;;;;;;;;;;21.52;44.33;101678.38;7280262;19;152097;-68
2022/05/04 08:31:46;;;;;;;;;;;;;;;21.50;44.22;101675.00;7282063;19;153699;-69
2022/05/04 08:34:13;;;;;;;;;;;;;;;21.51;44.11;101665.44;7286692;19;152783;-69
2022/05/04 08:36:46;;;;;;;;;;;;;;;21.50;44.67;101668.53;7282696;19;153505;-68
2022/05/04 08:39:13;;;;;;;;;;;;;;;21.48;44.42;101671.66;7279004;19;152220;-68
2022/05/04 08:41:41;;;;;;;;;;;;;;;21.47;44.48;101663.53;7280963;19;151764;-68
2022/05/04 08:44:09;;;;;;;;;;;;;;;21.46;44.33;101671.13;7279494;19;152158;-67
2022/05/04 08:46:38;;;;;;;;;;;;;;;21.46;44.65;101668.31;7280839;19;153895;-69
2022/05/04 08:49:05;;;;;;;;;;;;;;;21.45;44.35;101669.44;7282250;19;151595;-68
2022/05/04 08:51:34;;;;;;;;;;;;;;;21.43;44.43;101666.09;7283707;19;152538;-70
2022/05/04 08:54:02;;;;;;;;;;;;;;;21.42;44.28;101666.38;7279360;19;152777;-69
2022/05/04 08:56:29;;;;;;;;;;;;;;;21.43;44.39;101673.69;7288711;19;151829;-70
2022/05/04 08:58:56;;;;;;;;;;;;;;;21.41;44.79;101676.78;7279175;19;154076;-68
2022/05/04 09:01:25;;;;;;;;;;;;;;;21.41;44.31;101675.94;7281825;19;152153;-70
2022/05/04 09:03:52;;;;;;;;;;;;;;;21.37;44.55;101674.88;7281213;19;153754;-71
2022/05/04 09:06:28;;;;;;;;;;;;;;;21.36;44.69;101671.22;7278150;19;154329;-67
2022/05/04 09:08:56;;;;;;;;;;;;;;;21.36;44.33;101665.59;7280292;19;152398;-68
2022/05/04 09:11:24;;;;;;;;;;;;;;;21.37;44.49;101675.72;7280642;19;153729;-68
2022/05/04 09:13:52;;;;;;;;;;;;;;;21.36;44.51;101670.38;7275674;19;153363;-69
2022/05/04 09:16:26;;;;;;;;;;;;;;;21.36;44.70;101679.66;7287730;19;152065;-68
2022/05/04 09:18:53;;;;;;;;;;;;;;;21.35;44.54;101672.34;7278441;19;155492;-69
2022/05/04 09:21:22;;;;;;;;;;;;;;;21.34;44.26;101672.66;7280055;19;152286;-68
2022/05/04 09:23:52;;;;;;;;;;;;;;;21.35;44.66;101669.53;7281586;19;153346;-69
2022/05/04 09:26:20;;;;;;;;;;;;;;;21.33;44.43;101665.34;7277460;19;154191;-69
2022/05/04 09:28:49;;;;;;;;;;;;;;;21.29;44.76;101662.31;7279016;19;152828;-70
2022/05/04 09:31:18;;;;;;;;;;;;;;;21.34;44.28;101665.06;7244576;19;154003;-68
2022/05/04 09:33:52;;;;;;;;;;;;;;;21.33;44.70;101669.00;7273905;19;154074;-70
2022/05/04 09:36:29;;;;;;;;;;;;;;;21.35;44.67;101660.28;7278287;19;152347;-70
2022/05/04 09:46:47;;;;;;;;;;;;;;;21.24;44.21;101653.91;7276483;19;152173;-69
2022/05/04 09:49:16;;;;;;;;;;;;;;;21.24;44.41;101653.91;7277762;19;153547;-69
2022/05/04 09:51:49;;;;;;;;;;;;;;;21.20;44.22;101659.31;7279354;19;153876;-68
2022/05/04 09:54:18;;;;;;;;;;;;;;;21.19;44.65;101653.97;7276469;19;152623;-70
2022/05/04 09:56:46;;;;;;;;;;;;;;;21.18;44.22;101655.09;7278172;19;151851;-68
2022/05/04 09:59:14;;;;;;;;;;;;;;;21.17;44.42;101654.25;7277354;19;153298;-70
2022/05/04 10:01:42;;;;;;;;;;;;;;;21.17;44.23;101654.25;7283326;19;154463;-69
2022/05/04 10:04:10;;;;;;;;;;;;;;;21.16;44.24;101657.38;7277211;19;154122;-69
2022/05/04 10:06:37;;;;;;;;;;;;;;;21.16;44.33;101660.19;7276577;19;152074;-68
2022/05/04 10:09:04;;;;;;;;;;;;;;;21.15;44.27;101661.31;7280063;19;151760;-70
2022/05/04 10:11:34;;;;;;;;;;;;;;;21.12;44.49;101654.25;7276809;19;152607;-68
2022/05/04 10:14:03;;;;;;;;;;;;;;;21.12;44.74;101656.25;7279855;19;154093;-69
2022/05/04 10:16:31;;;;;;;;;;;;;;;21.11;44.48;101649.81;7283666;19;151988;-69
2022/05/04 10:19:00;;;;;;;;;;;;;;;21.13;44.22;101657.94;7282277;19;153455;-70
2022/05/04 10:21:28;;;;;;;;;;;;;;;21.09;44.46;101645.59;7285111;19;152781;-68
2022/05/04 10:23:57;;;;;;;;;;;;;;;21.10;44.22;101653.72;7294230;19;152223;-67
2022/05/04 10:26:32;;;;;;;;;;;;;;;21.07;44.82;101654.34;7285689;19;153882;-67
2022/05/04 10:31:36;;;;;;;;;;;;;;;21.10;44.57;101656.53;7281417;19;153244;-67
2022/05/04 10:34:06;;;;;;;;;;;;;;;21.08;44.50;101655.16;7278145;19;152336;-69
2022/05/04 10:36:45;;;;;;;;;;;;;;;21.06;44.30;101651.81;7284526;19;151839;-69
2022/05/04 10:39:21;;;;;;;;;;;;;;;21.07;44.22;101650.69;7283432;19;152660;-69
2022/05/04 10:41:49;;;;;;;;;;;;;;;21.03;44.24;101635.56;7282724;19;153404;-69
2022/05/04 10:44:17;;;;;;;;;;;;;;;21.01;44.35;101643.41;7282466;19;151911;-68
2022/05/04 10:46:47;;;;;;;;;;;;;;;21.03;44.67;101643.97;7290022;19;153164;-68
2022/05/04 10:49:15;;;;;;;;;;;;;;;21.03;44.47;101649.59;7283530;19;151867;-68
2022/05/04 10:51:44;;;;;;;;;;;;;;;21.03;44.53;101632.75;7286696;19;152961;-69
2022/05/04 10:54:13;;;;;;;;;;;;;;;20.98;44.46;101629.97;7283225;19;153313;-67
2022/05/04 10:56:42;;;;;;;;;;;;;;;20.99;44.29;101638.09;7282974;19;152095;-68
2022/05/04 10:59:10;;;;;;;;;;;;;;;20.97;44.49;101639.53;7283539;19;155603;-68
2022/05/04 11:01:38;;;;;;;;;;;;;;;20.99;44.39;101634.44;7281095;19;153507;-67
2022/05/04 11:04:07;;;;;;;;;;;;;;;20.96;44.76;101644.31;7283733;19;151993;-68
2022/05/04 11:06:36;;;;;;;;;;;;;;;20.97;44.32;101640.38;7282865;19;153322;-68
2022/05/04 11:09:04;;;;;;;;;;;;;;;20.97;44.25;101656.38;7287608;19;153364;-68
2022/05/04 11:11:32;;;;;;;;;;;;;;;20.91;44.29;101644.34;7281885;19;154132;-67
2022/05/04 11:13:59;;;;;;;;;;;;;;;20.94;44.32;101645.75;7279063;19;154657;-69
2022/05/04 11:16:28;;;;;;;;;;;;;;;20.91;44.25;101644.34;7284580;19;151898;-68
2022/05/04 11:18:57;;;;;;;;;;;;;;;20.94;44.31;101652.19;7282944;19;154044;-68
2022/05/04 11:21:25;;;;;;;;;;;;;;;20.92;44.48;101650.81;7281339;19;154523;-69
2022/05/04 11:23:53;;;;;;;;;;;;;;;20.95;44.18;101662.28;7279996;19;151874;-71
2022/05/04 11:26:21;;;;;;;;;;;;;;;20.94;44.51;101654.19;7283973;19;153437;-69
2022/05/04 11:28:49;;;;;;;;;;;;;;;20.91;44.33;101660.38;7285983;19;152698;-68
2022/05/04 11:31:17;;;;;;;;;;;;;;;20.92;44.03;101662.03;7282560;19;153585;-68
2022/05/04 11:33:45;;;;;;;;;;;;;;;20.94;44.21;101662.59;7278495;19;154085;-70
2022/05/04 11:36:12;;;;;;;;;;;;;;;20.90;44.31;101659.53;7279868;19;152057;-69
2022/05/04 11:38:43;;;;;;;;;;;;;;;20.86;43.92;101653.66;7281647;19;153931;-68
2022/05/04 11:41:11;;;;;;;;;;;;;;;20.80;44.21;101652.00;7281104;19;153686;-70
2022/05/04 11:43:38;;;;;;;;;;;;;;;20.84;43.99;101660.72;7284003;19;151906;-67
2022/05/04 11:46:07;;;;;;;;;;;;;;;20.82;44.03;101662.97;7281012;19;152542;-69
2022/05/04 11:48:35;;;;;;;;;;;;;;;20.81;44.31;101655.66;7278608;19;154498;-69
2022/05/04 11:51:02;;;;;;;;;;;;;;;20.77;44.35;101649.81;7288505;19;153143;-68
2022/05/04 11:53:29;;;;;;;;;;;;;;;20.75;44.63;101657.69;7281017;19;152172;-68
2022/05/04 11:55:57;;;;;;;;;;;;;;;20.78;44.67;101650.66;7283428;19;152103;-68
2022/05/04 11:58:24;;;;;;;;;;;;;;;20.75;44.42;101646.47;7280893;19;154602;-69
2022/05/04 12:00:51;;;;;;;;;;;;;;;20.78;44.36;101645.88;7279773;19;152292;-69
2022/05/04 12:03:19;;;;;;;;;;;;;;;20.80;44.45;101643.59;7283408;19;151970;-67
2022/05/04 12:05:46;;;;;;;;;;;;;;;20.84;44.57;101636.28;7282434;19;153533;-68
2022/05/04 12:08:14;;;;;;;;;;;;;;;20.90;44.46;101637.03;7279598;19;152124;-68
2022/05/04 12:10:41;;;;;;;;;;;;;;;20.96;44.37;101635.03;7280676;19;152213;-70
2022/05/04 12:13:08;;;;;;;;;;;;;;;21.04;44.40;101631.59;7286355;19;154904;-70
2022/05/04 12:15:39;;;;;;;;;;;;;;;21.09;44.17;101629.56;7277198;19;151879;-70
2022/05/04 12:18:17;;;;;;;;;;;;;;;21.17;43.97;101636.53;7277005;19;152746;-71
2022/05/04 12:20:44;;;;;;;;;;;;;;;21.23;44.34;101626.94;7280856;19;153221;-71
2022/05/04 12:23:13;;;;;;;;;;;;;;;21.29;44.11;101626.59;7279741;19;152435;-72
2022/05/04 12:25:43;;;;;;;;;;;;;;;21.36;44.24;101616.97;7281855;19;153962;-70
2022/05/04 12:28:10;;;;;;;;;;;;;;;21.44;43.62;101625.56;7276917;19;155423;-71
2022/05/04 12:33:17;;;;;;;;;;;;;;;21.58;43.90;101620.06;7280793;19;151951;-68
2022/05/04 12:35:45;;;;;;;;;;;;;;;21.64;43.66;101616.91;7280576;19;153370;-69
2022/05/04 12:38:16;;;;;;;;;;;;;;;21.70;43.41;101618.53;7280933;19;155565;-68
2022/05/04 12:40:44;;;;;;;;;;;;;;;21.77;43.51;101609.72;7279521;19;153437;-67
2022/05/04 12:43:17;;;;;;;;;;;;;;;21.83;43.25;101613.31;7279706;19;151654;-67
2022/05/04 12:45:44;;;;;;;;;;;;;;;21.89;43.20;101614.94;7279869;19;153209;-68
2022/05/04 12:48:11;;;;;;;;;;;;;;;21.98;42.62;101607.53;7277757;19;152297;-68
2022/05/04 12:50:39;;;;;;;;;;;;;;;22.04;42.90;101601.50;7278007;19;152146;-68
2022/05/04 12:53:06;;;;;;;;;;;;;;;22.11;42.63;101596.34;7279719;19;153778;-68
2022/05/04 12:58:10;;;;;;;;;;;;;;;22.21;42.43;101588.91;7289546;19;152037;-71
2022/05/04 13:00:37;;;;;;;;;;;;;;;22.27;42.11;101599.78;7277534;19;152636;-72
2022/05/04 13:03:08;;;;;;;;;;;;;;;22.32;42.32;101587.59;7280818;19;151753;-72
2022/05/04 13:05:35;;;;;;;;;;;;;;;22.37;42.48;101590.34;7278426;19;154790;-70
2022/05/04 13:08:02;;;;;;;;;;;;;;;22.41;42.35;101595.06;7277957;19;152824;-70
2022/05/04 13:10:30;;;;;;;;;;;;;;;22.44;42.18;101587.97;7281475;19;151991;-71
2022/05/04 13:12:58;;;;;;;;;;;;;;;22.47;41.75;101585.38;7277993;19;155637;-68